sensor_id;sensor_type;location;lat;lon;timestamp;pressure;altitude;pressure_sealevel;temperature;humidity
56604;BME280;42486;47.478;19.036;2023-01-28T00:01:33;100281.78;;;1.45;95.74
56604;BME280;42486;47.478;19.036;2023-01-28T00:04:37;100270.81;;;1.40;95.16
56604;BME280;42486;47.478;19.036;2023-01-28T00:07:43;100276.75;;;1.42;96.23
56604;BME280;42486;47.478;19.036;2023-01-28T00:10:50;100275.41;;;1.31;97.14
56604;BME280;42486;47.478;19.036;2023-01-28T00:13:54;100284.81;;;1.32;96.83
56604;BME280;42486;47.478;19.036;2023-01-28T00:16:58;100283.03;;;1.35;96.34
56604;BME280;42486;47.478;19.036;2023-01-28T00:20:05;100277.75;;;1.38;96.69
56604;BME280;42486;47.478;19.036;2023-01-28T00:23:09;100286.22;;;1.41;96.67
56604;BME280;42486;47.478;19.036;2023-01-28T00:26:14;100286.44;;;1.35;95.60
56604;BME280;42486;47.478;19.036;2023-01-28T00:29:18;100289.75;;;1.39;95.22
56604;BME280;42486;47.478;19.036;2023-01-28T00:32:21;100287.19;;;1.39;94.84
56604;BME280;42486;47.478;19.036;2023-01-28T00:35:25;100285.59;;;1.35;93.76
56604;BME280;42486;47.478;19.036;2023-01-28T00:38:29;100298.34;;;1.38;95.16
56604;BME280;42486;47.478;19.036;2023-01-28T00:41:34;100300.09;;;1.37;93.47
56604;BME280;42486;47.478;19.036;2023-01-28T00:44:39;100292.22;;;1.42;93.80
56604;BME280;42486;47.478;19.036;2023-01-28T00:47:44;100293.16;;;1.39;93.86
56604;BME280;42486;47.478;19.036;2023-01-28T00:50:48;100305.00;;;1.43;95.96
56604;BME280;42486;47.478;19.036;2023-01-28T00:53:52;100311.97;;;1.41;94.79
56604;BME280;42486;47.478;19.036;2023-01-28T00:56:58;100301.72;;;1.40;93.89
56604;BME280;42486;47.478;19.036;2023-01-28T01:00:04;100306.62;;;1.46;94.34
56604;BME280;42486;47.478;19.036;2023-01-28T01:03:09;100311.84;;;1.44;92.70
56604;BME280;42486;47.478;19.036;2023-01-28T01:06:15;100308.31;;;1.47;93.80
56604;BME280;42486;47.478;19.036;2023-01-28T01:09:20;100307.66;;;1.42;92.71
56604;BME280;42486;47.478;19.036;2023-01-28T01:12:24;100310.78;;;1.50;92.63
56604;BME280;42486;47.478;19.036;2023-01-28T01:15:27;100306.47;;;1.50;87.99
56604;BME280;42486;47.478;19.036;2023-01-28T01:18:32;100309.75;;;1.54;88.58
56604;BME280;42486;47.478;19.036;2023-01-28T01:21:38;100307.38;;;1.49;88.17
56604;BME280;42486;47.478;19.036;2023-01-28T01:24:42;100312.41;;;1.52;87.12
56604;BME280;42486;47.478;19.036;2023-01-28T01:27:50;100307.19;;;1.54;87.07
56604;BME280;42486;47.478;19.036;2023-01-28T01:31:06;100307.25;;;1.52;87.32
56604;BME280;42486;47.478;19.036;2023-01-28T01:34:11;100314.81;;;1.57;87.79
56604;BME280;42486;47.478;19.036;2023-01-28T01:37:15;100315.41;;;1.64;88.15
56604;BME280;42486;47.478;19.036;2023-01-28T01:40:20;100315.03;;;1.51;88.42
56604;BME280;42486;47.478;19.036;2023-01-28T01:43:25;100315.97;;;1.48;89.78
56604;BME280;42486;47.478;19.036;2023-01-28T01:46:48;100305.63;;;1.50;90.57
56604;BME280;42486;47.478;19.036;2023-01-28T01:49:55;100316.16;;;1.44;90.94
56604;BME280;42486;47.478;19.036;2023-01-28T01:53:03;100314.19;;;1.50;91.76
56604;BME280;42486;47.478;19.036;2023-01-28T01:56:15;100312.53;;;1.49;92.46
56604;BME280;42486;47.478;19.036;2023-01-28T01:59:27;100317.94;;;1.42;92.50
56604;BME280;42486;47.478;19.036;2023-01-28T02:02:45;100318.06;;;1.39;92.87
56604;BME280;42486;47.478;19.036;2023-01-28T02:05:54;100323.47;;;1.31;93.69
56604;BME280;42486;47.478;19.036;2023-01-28T02:08:57;100319.28;;;1.28;94.43
56604;BME280;42486;47.478;19.036;2023-01-28T02:12:06;100323.53;;;1.29;94.87
56604;BME280;42486;47.478;19.036;2023-01-28T02:15:18;100321.03;;;1.28;94.79
56604;BME280;42486;47.478;19.036;2023-01-28T02:18:24;100323.53;;;1.29;95.08
56604;BME280;42486;47.478;19.036;2023-01-28T02:24:57;100325.31;;;1.27;95.36
56604;BME280;42486;47.478;19.036;2023-01-28T02:31:52;100312.66;;;1.21;97.00
56604;BME280;42486;47.478;19.036;2023-01-28T02:35:06;100312.63;;;1.23;97.46
56604;BME280;42486;47.478;19.036;2023-01-28T02:38:30;100306.62;;;1.22;97.78
56604;BME280;42486;47.478;19.036;2023-01-28T02:41:46;100306.56;;;1.24;97.30
56604;BME280;42486;47.478;19.036;2023-01-28T02:44:52;100309.38;;;1.18;98.74
56604;BME280;42486;47.478;19.036;2023-01-28T02:47:55;100315.19;;;1.23;98.18
56604;BME280;42486;47.478;19.036;2023-01-28T02:51:11;100310.94;;;1.22;98.01
56604;BME280;42486;47.478;19.036;2023-01-28T02:54:44;100311.75;;;1.22;99.14
56604;BME280;42486;47.478;19.036;2023-01-28T03:01:37;100304.22;;;1.18;99.78
56604;BME280;42486;47.478;19.036;2023-01-28T03:05:04;100307.59;;;1.20;100.00
56604;BME280;42486;47.478;19.036;2023-01-28T03:08:09;100306.16;;;1.11;100.00
56604;BME280;42486;47.478;19.036;2023-01-28T03:12:00;100307.09;;;1.08;100.00
56604;BME280;42486;47.478;19.036;2023-01-28T03:15:23;100304.87;;;0.99;100.00
56604;BME280;42486;47.478;19.036;2023-01-28T03:18:50;100309.00;;;1.03;100.00
56604;BME280;42486;47.478;19.036;2023-01-28T03:22:13;100305.81;;;0.97;100.00
56604;BME280;42486;47.478;19.036;2023-01-28T03:25:37;100306.75;;;0.94;100.00
56604;BME280;42486;47.478;19.036;2023-01-28T03:29:06;100304.22;;;0.93;100.00
56604;BME280;42486;47.478;19.036;2023-01-28T03:32:29;100301.84;;;0.88;100.00
56604;BME280;42486;47.478;19.036;2023-01-28T03:35:52;100310.28;;;0.92;100.00
56604;BME280;42486;47.478;19.036;2023-01-28T03:39:16;100309.28;;;0.96;100.00
56604;BME280;42486;47.478;19.036;2023-01-28T03:42:20;100313.75;;;0.91;100.00
56604;BME280;42486;47.478;19.036;2023-01-28T03:45:23;100307.03;;;0.86;100.00
56604;BME280;42486;47.478;19.036;2023-01-28T03:48:27;100316.62;;;0.81;100.00
56604;BME280;42486;47.478;19.036;2023-01-28T03:51:32;100322.50;;;0.85;100.00
56604;BME280;42486;47.478;19.036;2023-01-28T03:54:36;100319.56;;;0.96;100.00
56604;BME280;42486;47.478;19.036;2023-01-28T03:57:42;100328.06;;;0.98;100.00
56604;BME280;42486;47.478;19.036;2023-01-28T04:00:47;100326.25;;;1.01;100.00
56604;BME280;42486;47.478;19.036;2023-01-28T04:03:51;100327.09;;;1.02;100.00
56604;BME280;42486;47.478;19.036;2023-01-28T04:06:56;100326.25;;;1.01;100.00
56604;BME280;42486;47.478;19.036;2023-01-28T04:10:01;100322.09;;;0.97;100.00
56604;BME280;42486;47.478;19.036;2023-01-28T04:13:06;100324.78;;;0.94;100.00
56604;BME280;42486;47.478;19.036;2023-01-28T04:16:16;100321.09;;;1.01;100.00
56604;BME280;42486;47.478;19.036;2023-01-28T04:19:21;100324.78;;;0.94;100.00
56604;BME280;42486;47.478;19.036;2023-01-28T04:22:25;100321.16;;;1.00;100.00
56604;BME280;42486;47.478;19.036;2023-01-28T04:25:32;100328.13;;;0.96;100.00
56604;BME280;42486;47.478;19.036;2023-01-28T04:28:36;100328.81;;;1.01;100.00
56604;BME280;42486;47.478;19.036;2023-01-28T04:31:40;100333.31;;;0.95;100.00
56604;BME280;42486;47.478;19.036;2023-01-28T04:34:46;100337.62;;;0.94;100.00
56604;BME280;42486;47.478;19.036;2023-01-28T04:37:49;100332.53;;;0.93;100.00
56604;BME280;42486;47.478;19.036;2023-01-28T04:40:53;100336.78;;;0.94;100.00
56604;BME280;42486;47.478;19.036;2023-01-28T04:43:58;100332.41;;;0.96;100.00
56604;BME280;42486;47.478;19.036;2023-01-28T04:47:01;100340.75;;;1.04;100.00
56604;BME280;42486;47.478;19.036;2023-01-28T04:50:07;100331.28;;;1.04;100.00
56604;BME280;42486;47.478;19.036;2023-01-28T04:53:11;100337.41;;;1.00;100.00
56604;BME280;42486;47.478;19.036;2023-01-28T04:56:15;100340.78;;;1.02;100.00
56604;BME280;42486;47.478;19.036;2023-01-28T04:59:18;100338.81;;;1.09;100.00
56604;BME280;42486;47.478;19.036;2023-01-28T05:02:22;100343.31;;;1.04;100.00
56604;BME280;42486;47.478;19.036;2023-01-28T05:05:27;100351.09;;;1.01;100.00
56604;BME280;42486;47.478;19.036;2023-01-28T05:08:31;100354.47;;;1.03;100.00
56604;BME280;42486;47.478;19.036;2023-01-28T05:11:36;100358.25;;;0.93;100.00
56604;BME280;42486;47.478;19.036;2023-01-28T05:14:41;100360.31;;;0.83;100.00
56604;BME280;42486;47.478;19.036;2023-01-28T05:17:45;100355.75;;;0.91;100.00
56604;BME280;42486;47.478;19.036;2023-01-28T05:20:48;100363.47;;;0.91;100.00
56604;BME280;42486;47.478;19.036;2023-01-28T05:23:56;100369.44;;;0.92;100.00
56604;BME280;42486;47.478;19.036;2023-01-28T05:27:01;100366.75;;;0.95;100.00
56604;BME280;42486;47.478;19.036;2023-01-28T05:30:06;100367.00;;;0.87;100.00
56604;BME280;42486;47.478;19.036;2023-01-28T05:33:10;100368.16;;;0.78;100.00
56604;BME280;42486;47.478;19.036;2023-01-28T05:36:15;100369.09;;;0.76;100.00
56604;BME280;42486;47.478;19.036;2023-01-28T05:39:19;100371.53;;;0.80;100.00
56604;BME280;42486;47.478;19.036;2023-01-28T05:42:22;100374.28;;;0.74;100.00
56604;BME280;42486;47.478;19.036;2023-01-28T05:45:27;100364.75;;;0.78;100.00
56604;BME280;42486;47.478;19.036;2023-01-28T05:48:32;100372.56;;;0.75;100.00
56604;BME280;42486;47.478;19.036;2023-01-28T05:51:40;100376.09;;;0.72;100.00
56604;BME280;42486;47.478;19.036;2023-01-28T05:54:44;100377.50;;;0.81;100.00
56604;BME280;42486;47.478;19.036;2023-01-28T05:57:49;100379.06;;;0.85;100.00
56604;BME280;42486;47.478;19.036;2023-01-28T06:00:54;100377.28;;;0.87;100.00
56604;BME280;42486;47.478;19.036;2023-01-28T06:03:59;100381.59;;;0.86;100.00
56604;BME280;42486;47.478;19.036;2023-01-28T06:07:03;100390.22;;;0.85;100.00
56604;BME280;42486;47.478;19.036;2023-01-28T06:10:07;100385.91;;;0.86;100.00
56604;BME280;42486;47.478;19.036;2023-01-28T06:13:12;100396.72;;;0.96;100.00
56604;BME280;42486;47.478;19.036;2023-01-28T06:16:15;100395.44;;;0.82;100.00
56604;BME280;42486;47.478;19.036;2023-01-28T06:19:22;100395.41;;;0.84;100.00
56604;BME280;42486;47.478;19.036;2023-01-28T06:22:25;100400.69;;;0.79;100.00
56604;BME280;42486;47.478;19.036;2023-01-28T06:25:29;100405.09;;;0.76;100.00
56604;BME280;42486;47.478;19.036;2023-01-28T06:28:33;100406.94;;;0.72;100.00
56604;BME280;42486;47.478;19.036;2023-01-28T06:31:39;100400.06;;;0.73;100.00
56604;BME280;42486;47.478;19.036;2023-01-28T06:34:42;100399.28;;;0.69;100.00
56604;BME280;42486;47.478;19.036;2023-01-28T06:37:47;100409.34;;;0.77;100.00
56604;BME280;42486;47.478;19.036;2023-01-28T06:40:52;100415.72;;;0.65;100.00
56604;BME280;42486;47.478;19.036;2023-01-28T06:43:58;100424.06;;;0.72;100.00
56604;BME280;42486;47.478;19.036;2023-01-28T06:47:02;100427.53;;;0.71;100.00
56604;BME280;42486;47.478;19.036;2023-01-28T06:50:06;100430.59;;;0.82;100.00
56604;BME280;42486;47.478;19.036;2023-01-28T06:53:10;100436.94;;;0.72;100.00
56604;BME280;42486;47.478;19.036;2023-01-28T06:56:13;100434.34;;;0.72;100.00
56604;BME280;42486;47.478;19.036;2023-01-28T06:59:17;100446.47;;;0.68;100.00
56604;BME280;42486;47.478;19.036;2023-01-28T07:02:21;100451.41;;;0.74;100.00
56604;BME280;42486;47.478;19.036;2023-01-28T07:05:27;100456.75;;;0.68;100.00
56604;BME280;42486;47.478;19.036;2023-01-28T07:08:32;100455.72;;;0.74;100.00
56604;BME280;42486;47.478;19.036;2023-01-28T07:11:35;100458.91;;;0.82;100.00
56604;BME280;42486;47.478;19.036;2023-01-28T07:14:39;100466.47;;;0.86;100.00
56604;BME280;42486;47.478;19.036;2023-01-28T07:17:43;100470.97;;;0.80;100.00
56604;BME280;42486;47.478;19.036;2023-01-28T07:20:46;100465.88;;;0.78;100.00
56604;BME280;42486;47.478;19.036;2023-01-28T07:23:49;100477.13;;;0.74;100.00
56604;BME280;42486;47.478;19.036;2023-01-28T07:26:54;100479.44;;;0.83;100.00
56604;BME280;42486;47.478;19.036;2023-01-28T07:29:57;100485.16;;;0.92;100.00
56604;BME280;42486;47.478;19.036;2023-01-28T07:33:01;100482.34;;;0.73;100.00
56604;BME280;42486;47.478;19.036;2023-01-28T07:36:05;100486.09;;;0.89;100.00
56604;BME280;42486;47.478;19.036;2023-01-28T07:39:10;100485.44;;;0.82;100.00
56604;BME280;42486;47.478;19.036;2023-01-28T07:42:14;100485.41;;;0.84;100.00
56604;BME280;42486;47.478;19.036;2023-01-28T07:45:19;100494.28;;;1.02;100.00
56604;BME280;42486;47.478;19.036;2023-01-28T07:48:22;100492.59;;;1.01;100.00
56604;BME280;42486;47.478;19.036;2023-01-28T07:51:25;100488.00;;;1.10;100.00
56604;BME280;42486;47.478;19.036;2023-01-28T07:54:29;100488.13;;;1.06;100.00
56604;BME280;42486;47.478;19.036;2023-01-28T07:57:33;100485.31;;;1.14;100.00
56604;BME280;42486;47.478;19.036;2023-01-28T08:00:37;100485.03;;;1.23;100.00
56604;BME280;42486;47.478;19.036;2023-01-28T08:03:41;100488.22;;;1.29;100.00
56604;BME280;42486;47.478;19.036;2023-01-28T08:06:44;100502.97;;;1.24;100.00
56604;BME280;42486;47.478;19.036;2023-01-28T08:09:48;100495.59;;;1.14;100.00
56604;BME280;42486;47.478;19.036;2023-01-28T08:12:57;100506.50;;;1.22;100.00
56604;BME280;42486;47.478;19.036;2023-01-28T08:16:01;100505.25;;;1.34;100.00
56604;BME280;42486;47.478;19.036;2023-01-28T08:19:05;100502.38;;;1.43;100.00
56604;BME280;42486;47.478;19.036;2023-01-28T08:22:09;100509.47;;;1.36;100.00
56604;BME280;42486;47.478;19.036;2023-01-28T08:25:13;100506.66;;;1.44;100.00
56604;BME280;42486;47.478;19.036;2023-01-28T08:28:17;100502.44;;;1.41;100.00
56604;BME280;42486;47.478;19.036;2023-01-28T08:31:21;100505.06;;;1.40;100.00
56604;BME280;42486;47.478;19.036;2023-01-28T08:34:26;100514.41;;;1.42;100.00
56604;BME280;42486;47.478;19.036;2023-01-28T08:37:29;100523.50;;;1.52;100.00
56604;BME280;42486;47.478;19.036;2023-01-28T08:40:33;100523.75;;;1.70;100.00
56604;BME280;42486;47.478;19.036;2023-01-28T08:43:37;100525.41;;;1.47;100.00
56604;BME280;42486;47.478;19.036;2023-01-28T08:46:41;100527.50;;;1.36;100.00
56604;BME280;42486;47.478;19.036;2023-01-28T08:49:45;100534.50;;;1.58;100.00
56604;BME280;42486;47.478;19.036;2023-01-28T08:53:00;100528.22;;;1.65;100.00
56604;BME280;42486;47.478;19.036;2023-01-28T08:56:05;100529.38;;;1.56;100.00
56604;BME280;42486;47.478;19.036;2023-01-28T08:59:10;100532.66;;;1.61;100.00
56604;BME280;42486;47.478;19.036;2023-01-28T09:02:14;100540.91;;;1.71;100.00
56604;BME280;42486;47.478;19.036;2023-01-28T09:05:37;100536.50;;;1.74;100.00
56604;BME280;42486;47.478;19.036;2023-01-28T09:08:41;100540.25;;;1.64;100.00
56604;BME280;42486;47.478;19.036;2023-01-28T09:11:46;100544.69;;;1.61;100.00
56604;BME280;42486;47.478;19.036;2023-01-28T09:14:50;100542.53;;;1.73;100.00
56604;BME280;42486;47.478;19.036;2023-01-28T09:17:57;100542.81;;;1.66;100.00
56604;BME280;42486;47.478;19.036;2023-01-28T09:21:06;100549.37;;;1.74;100.00
56604;BME280;42486;47.478;19.036;2023-01-28T09:24:10;100553.28;;;1.86;100.00
56604;BME280;42486;47.478;19.036;2023-01-28T09:27:17;100552.69;;;2.03;100.00
56604;BME280;42486;47.478;19.036;2023-01-28T09:30:22;100550.22;;;2.00;100.00
56604;BME280;42486;47.478;19.036;2023-01-28T09:33:30;100552.34;;;2.12;100.00
56604;BME280;42486;47.478;19.036;2023-01-28T09:36:34;100557.50;;;2.12;100.00
56604;BME280;42486;47.478;19.036;2023-01-28T09:39:38;100563.13;;;2.24;100.00
56604;BME280;42486;47.478;19.036;2023-01-28T09:46:17;100563.03;;;2.02;100.00
56604;BME280;42486;47.478;19.036;2023-01-28T09:49:31;100557.38;;;2.15;100.00
56604;BME280;42486;47.478;19.036;2023-01-28T09:52:39;100551.31;;;1.93;100.00
56604;BME280;42486;47.478;19.036;2023-01-28T09:55:46;100553.94;;;1.91;100.00
56604;BME280;42486;47.478;19.036;2023-01-28T09:58:51;100553.28;;;1.86;100.00
56604;BME280;42486;47.478;19.036;2023-01-28T10:02:07;100549.16;;;2.06;100.00
56604;BME280;42486;47.478;19.036;2023-01-28T10:18:54;100540.00;;;2.68;100.00
56604;BME280;42486;47.478;19.036;2023-01-28T10:22:05;100549.63;;;3.08;100.00
56604;BME280;42486;47.478;19.036;2023-01-28T10:25:19;100550.94;;;3.18;100.00
56604;BME280;42486;47.478;19.036;2023-01-28T10:28:28;100551.53;;;3.47;100.00
56604;BME280;42486;47.478;19.036;2023-01-28T10:31:35;100544.63;;;3.68;94.02
56604;BME280;42486;47.478;19.036;2023-01-28T10:34:42;100545.13;;;3.56;95.47
56604;BME280;42486;47.478;19.036;2023-01-28T10:37:46;100552.88;;;3.56;92.53
56604;BME280;42486;47.478;19.036;2023-01-28T10:40:51;100545.78;;;3.61;93.77
56604;BME280;42486;47.478;19.036;2023-01-28T10:43:56;100553.53;;;3.61;89.46
56604;BME280;42486;47.478;19.036;2023-01-28T10:47:03;100550.16;;;3.38;90.59
56604;BME280;42486;47.478;19.036;2023-01-28T10:50:15;100549.13;;;3.22;94.54
56604;BME280;42486;47.478;19.036;2023-01-28T10:53:33;100550.16;;;3.38;91.19
56604;BME280;42486;47.478;19.036;2023-01-28T10:56:37;100537.00;;;3.44;90.91
56604;BME280;42486;47.478;19.036;2023-01-28T10:59:41;100552.31;;;3.27;91.24
56604;BME280;42486;47.478;19.036;2023-01-28T11:02:47;100553.59;;;3.39;90.67
56604;BME280;42486;47.478;19.036;2023-01-28T11:05:53;100553.62;;;3.37;90.56
56604;BME280;42486;47.478;19.036;2023-01-28T11:08:57;100548.03;;;3.27;91.29
56604;BME280;42486;47.478;19.036;2023-01-28T11:15:16;100549.28;;;3.17;93.11
56604;BME280;42486;47.478;19.036;2023-01-28T11:18:23;100549.50;;;3.33;92.76
56604;BME280;42486;47.478;19.036;2023-01-28T11:21:29;100535.09;;;3.27;93.57
56604;BME280;42486;47.478;19.036;2023-01-28T11:24:33;100534.97;;;3.51;94.59
56604;BME280;42486;47.478;19.036;2023-01-28T11:27:38;100535.75;;;3.33;93.45
56604;BME280;42486;47.478;19.036;2023-01-28T11:30:43;100528.81;;;3.13;92.62
56604;BME280;42486;47.478;19.036;2023-01-28T11:33:57;100530.69;;;3.09;92.73
56604;BME280;42486;47.478;19.036;2023-01-28T11:37:13;100528.84;;;3.11;92.93
56604;BME280;42486;47.478;19.036;2023-01-28T11:40:20;100535.87;;;3.29;90.58
56604;BME280;42486;47.478;19.036;2023-01-28T11:43:29;100525.19;;;3.39;90.49
56604;BME280;42486;47.478;19.036;2023-01-28T11:54:30;100525.06;;;3.62;86.83
56604;BME280;42486;47.478;19.036;2023-01-28T12:24:14;100511.06;;;3.68;80.04
56604;BME280;42486;47.478;19.036;2023-01-28T12:27:33;100515.47;;;4.05;77.89
56604;BME280;42486;47.478;19.036;2023-01-28T12:31:11;100518.37;;;3.97;77.64
56604;BME280;42486;47.478;19.036;2023-01-28T12:34:45;100513.75;;;4.04;77.12
56604;BME280;42486;47.478;19.036;2023-01-28T12:38:15;100515.75;;;3.99;77.36
56604;BME280;42486;47.478;19.036;2023-01-28T12:41:31;100513.25;;;3.96;75.57
56604;BME280;42486;47.478;19.036;2023-01-28T12:44:47;100516.78;;;3.95;76.69
56604;BME280;42486;47.478;19.036;2023-01-28T12:48:11;100516.88;;;3.73;77.04
56604;BME280;42486;47.478;19.036;2023-01-28T12:55:13;100518.78;;;3.47;77.11
56604;BME280;42486;47.478;19.036;2023-01-28T12:58:59;100518.97;;;3.63;76.69
56604;BME280;42486;47.478;19.036;2023-01-28T13:05:19;100523.66;;;3.75;75.63
56604;BME280;42486;47.478;19.036;2023-01-28T13:08:26;100525.19;;;3.80;76.63
56604;BME280;42486;47.478;19.036;2023-01-28T13:11:33;100527.44;;;3.87;75.77
56604;BME280;42486;47.478;19.036;2023-01-28T13:14:40;100521.81;;;3.98;74.88
56604;BME280;42486;47.478;19.036;2023-01-28T13:18:01;100535.22;;;4.06;75.97
56604;BME280;42486;47.478;19.036;2023-01-28T13:21:11;100534.91;;;3.93;75.49
56604;BME280;42486;47.478;19.036;2023-01-28T13:24:18;100539.78;;;3.81;75.59
56604;BME280;42486;47.478;19.036;2023-01-28T13:27:25;100535.13;;;3.89;77.08
56604;BME280;42486;47.478;19.036;2023-01-28T13:30:45;100539.91;;;3.78;75.41
56604;BME280;42486;47.478;19.036;2023-01-28T13:37:00;100544.16;;;3.58;77.35
56604;BME280;42486;47.478;19.036;2023-01-28T13:43:46;100551.47;;;3.69;77.15
56604;BME280;42486;47.478;19.036;2023-01-28T13:46:49;100553.28;;;3.67;75.80
56604;BME280;42486;47.478;19.036;2023-01-28T13:50:11;100555.66;;;3.51;76.04
56604;BME280;42486;47.478;19.036;2023-01-28T13:53:18;100561.75;;;3.70;76.04
56604;BME280;42486;47.478;19.036;2023-01-28T13:56:54;100564.84;;;3.79;75.71
56604;BME280;42486;47.478;19.036;2023-01-28T14:00:17;100569.69;;;3.86;76.34
56604;BME280;42486;47.478;19.036;2023-01-28T14:13:58;100569.37;;;3.94;78.20
56604;BME280;42486;47.478;19.036;2023-01-28T14:17:25;100567.09;;;3.66;83.07
56604;BME280;42486;47.478;19.036;2023-01-28T14:20:42;100578.03;;;3.72;85.92
56604;BME280;42486;47.478;19.036;2023-01-28T14:23:48;100576.41;;;3.70;87.31
56604;BME280;42486;47.478;19.036;2023-01-28T14:30:23;100580.19;;;3.61;89.48
56604;BME280;42486;47.478;19.036;2023-01-28T14:33:28;100587.03;;;3.42;89.43
56604;BME280;42486;47.478;19.036;2023-01-28T14:36:39;100585.59;;;3.35;90.02
56604;BME280;42486;47.478;19.036;2023-01-28T14:39:57;100595.97;;;3.11;90.95
56604;BME280;42486;47.478;19.036;2023-01-28T14:43:08;100586.44;;;3.13;91.79
56604;BME280;42486;47.478;19.036;2023-01-28T14:53:44;100600.91;;;3.17;92.82
56604;BME280;42486;47.478;19.036;2023-01-28T15:00:20;100608.84;;;2.89;93.70
56604;BME280;42486;47.478;19.036;2023-01-28T15:03:26;100606.69;;;2.78;94.81
56604;BME280;42486;47.478;19.036;2023-01-28T15:06:35;100602.31;;;2.80;95.16
56604;BME280;42486;47.478;19.036;2023-01-28T15:09:38;100606.69;;;2.78;95.18
56604;BME280;42486;47.478;19.036;2023-01-28T15:12:50;100606.56;;;2.81;95.43
56604;BME280;42486;47.478;19.036;2023-01-28T15:15:54;100615.06;;;2.85;96.52
56604;BME280;42486;47.478;19.036;2023-01-28T15:19:00;100614.81;;;2.68;96.20
56604;BME280;42486;47.478;19.036;2023-01-28T15:22:06;100620.88;;;2.67;96.77
56604;BME280;42486;47.478;19.036;2023-01-28T15:25:22;100628.62;;;2.67;97.08
56604;BME280;42486;47.478;19.036;2023-01-28T15:28:30;100632.00;;;2.69;96.03
56604;BME280;42486;47.478;19.036;2023-01-28T15:31:35;100637.59;;;2.56;96.61
56604;BME280;42486;47.478;19.036;2023-01-28T15:34:44;100641.34;;;2.48;97.69
56604;BME280;42486;47.478;19.036;2023-01-28T15:37:51;100639.44;;;2.53;98.04
56604;BME280;42486;47.478;19.036;2023-01-28T15:41:02;100640.41;;;2.50;98.06
56604;BME280;42486;47.478;19.036;2023-01-28T15:44:17;100645.94;;;2.39;98.71
56604;BME280;42486;47.478;19.036;2023-01-28T15:47:33;100647.06;;;2.31;100.00
56604;BME280;42486;47.478;19.036;2023-01-28T15:50:37;100643.41;;;2.38;100.00
56604;BME280;42486;47.478;19.036;2023-01-28T15:53:48;100652.12;;;2.34;100.00
56604;BME280;42486;47.478;19.036;2023-01-28T15:56:54;100658.28;;;2.30;100.00
56604;BME280;42486;47.478;19.036;2023-01-28T16:00:24;100658.53;;;2.22;100.00
56604;BME280;42486;47.478;19.036;2023-01-28T16:03:28;100659.59;;;2.16;100.00
56604;BME280;42486;47.478;19.036;2023-01-28T16:06:37;100669.94;;;2.15;100.00
56604;BME280;42486;47.478;19.036;2023-01-28T16:09:41;100665.69;;;2.14;100.00
56604;BME280;42486;47.478;19.036;2023-01-28T16:12:50;100671.13;;;2.05;100.00
56604;BME280;42486;47.478;19.036;2023-01-28T16:15:56;100674.63;;;2.04;100.00
56604;BME280;42486;47.478;19.036;2023-01-28T16:19:04;100678.84;;;2.06;100.00
56604;BME280;42486;47.478;19.036;2023-01-28T16:22:19;100683.09;;;2.07;100.00
56604;BME280;42486;47.478;19.036;2023-01-28T16:25:30;100689.00;;;2.11;100.00
56604;BME280;42486;47.478;19.036;2023-01-28T16:28:35;100689.16;;;2.06;100.00
56604;BME280;42486;47.478;19.036;2023-01-28T16:31:38;100691.81;;;2.03;100.00
56604;BME280;42486;47.478;19.036;2023-01-28T16:34:41;100690.22;;;1.99;100.00
56604;BME280;42486;47.478;19.036;2023-01-28T16:37:47;100698.06;;;1.96;100.00
56604;BME280;42486;47.478;19.036;2023-01-28T16:40:51;100698.13;;;1.94;100.00
56604;BME280;42486;47.478;19.036;2023-01-28T16:43:54;100706.56;;;2.00;100.00
56604;BME280;42486;47.478;19.036;2023-01-28T16:46:58;100701.53;;;1.95;100.00
56604;BME280;42486;47.478;19.036;2023-01-28T16:50:01;100699.13;;;1.89;100.00
56604;BME280;42486;47.478;19.036;2023-01-28T16:53:08;100706.97;;;1.86;100.00
56604;BME280;42486;47.478;19.036;2023-01-28T16:56:22;100709.62;;;1.84;100.00
56604;BME280;42486;47.478;19.036;2023-01-28T16:59:47;100700.97;;;1.85;100.00
56604;BME280;42486;47.478;19.036;2023-01-28T17:02:52;100709.16;;;1.71;100.00
56604;BME280;42486;47.478;19.036;2023-01-28T17:05:56;100702.25;;;1.72;100.00
56604;BME280;42486;47.478;19.036;2023-01-28T17:09:01;100693.84;;;1.67;100.00
56604;BME280;42486;47.478;19.036;2023-01-28T17:12:04;100713.59;;;1.66;100.00
56604;BME280;42486;47.478;19.036;2023-01-28T17:15:08;100711.03;;;1.66;100.00
56604;BME280;42486;47.478;19.036;2023-01-28T17:18:11;100712.91;;;1.61;100.00
56604;BME280;42486;47.478;19.036;2023-01-28T17:21:15;100713.59;;;1.66;100.00
56604;BME280;42486;47.478;19.036;2023-01-28T17:24:19;100720.50;;;1.66;100.00
56604;BME280;42486;47.478;19.036;2023-01-28T17:27:27;100728.34;;;1.61;100.00
56604;BME280;42486;47.478;19.036;2023-01-28T17:30:31;100727.66;;;1.56;100.00
56604;BME280;42486;47.478;19.036;2023-01-28T17:33:35;100726.78;;;1.57;100.00
56604;BME280;42486;47.478;19.036;2023-01-28T17:36:39;100739.72;;;1.54;100.00
56604;BME280;42486;47.478;19.036;2023-01-28T17:39:43;100743.09;;;1.56;100.00
56604;BME280;42486;47.478;19.036;2023-01-28T17:42:47;100746.59;;;1.53;100.00
56604;BME280;42486;47.478;19.036;2023-01-28T17:45:51;100742.22;;;1.57;100.00
56604;BME280;42486;47.478;19.036;2023-01-28T17:48:55;100750.88;;;1.54;100.00
56604;BME280;42486;47.478;19.036;2023-01-28T17:51:58;100749.37;;;1.47;100.00
56604;BME280;42486;47.478;19.036;2023-01-28T17:55:03;100761.19;;;1.54;100.00
56604;BME280;42486;47.478;19.036;2023-01-28T17:58:07;100762.00;;;1.55;100.00
56604;BME280;42486;47.478;19.036;2023-01-28T18:01:10;100756.03;;;1.54;100.00